createdAt,value
2023-06-17T00:01:49.040Z,98117.93
2023-06-17T00:04:15.815Z,98119.42
2023-06-17T00:06:42.634Z,98110.42
2023-06-17T00:09:09.510Z,98116.05
2023-06-17T00:11:36.299Z,98120.92
2023-06-17T00:14:03.611Z,98120.20
2023-06-17T00:16:33.901Z,98119.89
2023-06-17T00:19:01.121Z,98119.61
2023-06-17T00:21:27.858Z,98124.36
2023-06-17T00:23:54.744Z,98128.58
2023-06-17T00:26:21.511Z,98123.38
2023-06-17T00:28:49.108Z,98121.48
2023-06-17T00:31:17.784Z,98122.16
2023-06-17T00:33:44.864Z,98118.45
2023-06-17T00:36:11.686Z,98116.89
2023-06-17T00:38:38.643Z,98117.05
2023-06-17T00:41:05.416Z,98116.73
2023-06-17T00:43:32.237Z,98118.06
2023-06-17T00:45:59.968Z,98113.66
2023-06-17T00:48:27.118Z,98112.42
2023-06-17T00:50:54.018Z,98111.73
2023-06-17T00:53:20.892Z,98106.93
2023-06-17T00:55:48.141Z,98112.90
2023-06-17T00:58:17.201Z,98105.58
2023-06-17T01:00:43.980Z,98106.11
2023-06-17T01:03:10.909Z,98107.36
2023-06-17T01:05:39.855Z,98106.39
2023-06-17T01:08:37.983Z,98107.13
2023-06-17T01:11:04.765Z,98101.60
2023-06-17T01:13:35.422Z,98107.73
2023-06-17T01:16:04.019Z,98109.15
2023-06-17T01:18:32.673Z,98112.39
2023-06-17T01:21:00.273Z,98116.84
2023-06-17T01:23:33.138Z,98116.63
2023-06-17T01:26:02.903Z,98114.61
2023-06-17T01:28:30.758Z,98115.36
2023-06-17T01:30:58.600Z,98115.11
2023-06-17T01:33:26.578Z,98119.42
2023-06-17T01:36:03.514Z,98122.31
2023-06-17T01:38:34.682Z,98124.95
2023-06-17T01:41:05.781Z,98117.98
2023-06-17T01:43:36.662Z,98117.90
2023-06-17T01:46:05.564Z,98122.25
2023-06-17T01:48:32.914Z,98126.70
2023-06-17T01:50:59.997Z,98121.94
2023-06-17T01:53:27.908Z,98121.86
2023-06-17T01:55:55.428Z,98119.81
2023-06-17T01:58:22.562Z,98123.65
2023-06-17T02:00:49.414Z,98123.95
2023-06-17T02:03:17.368Z,98116.86
2023-06-17T02:05:45.885Z,98112.20
2023-06-17T02:08:15.339Z,98117.20
2023-06-17T02:10:42.632Z,98117.95
2023-06-17T02:13:09.483Z,98122.59
2023-06-17T02:15:36.684Z,98122.30
2023-06-17T02:18:03.863Z,98125.27
2023-06-17T02:20:30.716Z,98131.05
2023-06-17T02:22:57.511Z,98133.09
2023-06-17T02:25:24.376Z,98136.25
2023-06-17T02:27:51.393Z,98136.94
2023-06-17T02:30:18.667Z,98134.66
2023-06-17T02:32:45.902Z,98135.19
2023-06-17T02:35:12.846Z,98142.09
2023-06-17T02:37:39.969Z,98140.34
2023-06-17T02:40:10.074Z,98141.94
2023-06-17T02:42:37.754Z,98141.84
2023-06-17T02:45:05.959Z,98143.94
2023-06-17T02:47:32.739Z,98142.31
2023-06-17T02:49:59.671Z,98145.49
2023-06-17T02:52:26.742Z,98143.92
2023-06-17T02:54:53.679Z,98140.65
2023-06-17T02:57:21.832Z,98141.64
2023-06-17T02:59:48.935Z,98142.21
2023-06-17T03:02:16.024Z,98142.60
2023-06-17T03:04:43.494Z,98144.95
2023-06-17T03:07:13.283Z,98144.30
2023-06-17T03:09:40.133Z,98143.80
2023-06-17T03:12:07.632Z,98145.21
2023-06-17T03:14:34.895Z,98145.71
2023-06-17T03:17:04.348Z,98150.00
2023-06-17T03:19:31.340Z,98146.17
2023-06-17T03:21:58.112Z,98148.08
2023-06-17T03:24:26.829Z,98147.66
2023-06-17T03:26:54.830Z,98146.26
2023-06-17T03:29:22.294Z,98146.66
2023-06-17T03:31:52.687Z,98150.11
2023-06-17T03:34:20.402Z,98150.40
2023-06-17T03:36:48.599Z,98150.71
2023-06-17T03:39:15.944Z,98151.80
2023-06-17T03:41:43.388Z,98153.58
2023-06-17T03:44:10.719Z,98151.61
2023-06-17T03:46:38.304Z,98152.51
2023-06-17T03:49:05.581Z,98153.28
2023-06-17T03:51:33.474Z,98154.26
2023-06-17T03:54:00.789Z,98155.02
2023-06-17T03:56:28.838Z,98163.73
2023-06-17T03:58:55.723Z,98165.04
2023-06-17T04:01:22.788Z,98165.45
2023-06-17T04:03:50.290Z,98169.95
2023-06-17T04:06:17.948Z,98167.11
2023-06-17T04:08:45.259Z,98165.80
2023-06-17T04:11:14.659Z,98169.42
2023-06-17T04:13:41.431Z,98165.91
2023-06-17T04:16:08.452Z,98163.52
2023-06-17T04:18:35.407Z,98162.63
2023-06-17T04:21:03.004Z,98161.86
2023-06-17T04:23:31.547Z,98159.63
2023-06-17T04:25:59.439Z,98158.02
2023-06-17T04:28:26.302Z,98159.19
2023-06-17T04:30:54.208Z,98160.95
2023-06-17T04:33:21.507Z,98163.06
2023-06-17T04:35:48.553Z,98162.19
2023-06-17T04:38:15.844Z,98163.59
2023-06-17T04:40:43.235Z,98167.00
2023-06-17T04:43:11.204Z,98169.23
2023-06-17T04:45:40.517Z,98172.23
2023-06-17T04:48:08.257Z,98179.85
2023-06-17T04:50:35.181Z,98176.59
2023-06-17T04:53:04.840Z,98180.87
2023-06-17T04:55:37.019Z,98178.78
2023-06-17T04:58:05.747Z,98179.45
2023-06-17T05:00:44.442Z,98176.54
2023-06-17T05:03:15.127Z,98176.30
2023-06-17T05:05:42.316Z,98178.13
2023-06-17T05:08:09.279Z,98176.33
2023-06-17T05:10:36.058Z,98176.79
2023-06-17T05:13:03.780Z,98174.86
2023-06-17T05:15:32.214Z,98182.27
2023-06-17T05:17:59.095Z,98181.63
2023-06-17T05:20:25.910Z,98174.73
2023-06-17T05:22:52.765Z,98177.55
2023-06-17T05:25:19.708Z,98179.76
2023-06-17T05:27:46.569Z,98182.10
2023-06-17T05:30:14.411Z,98180.92
2023-06-17T05:32:44.332Z,98179.45
2023-06-17T05:35:11.376Z,98179.85
2023-06-17T05:37:38.677Z,98183.33
2023-06-17T05:40:06.526Z,98179.88
2023-06-17T05:42:34.796Z,98184.39
2023-06-17T05:45:01.774Z,98188.20
2023-06-17T05:47:30.805Z,98191.84
2023-06-17T05:49:58.222Z,98193.29
2023-06-17T05:52:25.547Z,98195.04
2023-06-17T05:54:52.845Z,98194.65
2023-06-17T05:57:19.820Z,98193.86
2023-06-17T05:59:47.178Z,98192.91
2023-06-17T06:02:14.054Z,98193.58
2023-06-17T06:04:40.892Z,98189.64
2023-06-17T06:07:08.698Z,98195.29
2023-06-17T06:09:35.506Z,98196.20
2023-06-17T06:12:02.625Z,98190.59
2023-06-17T06:14:29.429Z,98188.36
2023-06-17T06:16:56.870Z,98191.52
2023-06-17T06:19:23.776Z,98185.84
2023-06-17T06:21:51.073Z,98192.92
2023-06-17T06:24:17.936Z,98195.05
2023-06-17T06:26:44.766Z,98200.00
2023-06-17T06:29:14.569Z,98203.16
2023-06-17T06:31:44.634Z,98207.40
2023-06-17T06:34:12.153Z,98210.05
2023-06-17T06:36:38.953Z,98207.88
2023-06-17T06:39:05.875Z,98208.17
2023-06-17T06:41:32.815Z,98211.34
2023-06-17T06:44:04.856Z,98207.03
2023-06-17T06:46:33.033Z,98199.13
2023-06-17T06:49:00.224Z,98204.54
2023-06-17T06:51:27.588Z,98197.91
2023-06-17T06:53:54.957Z,98204.37
2023-06-17T06:56:21.908Z,98202.84
2023-06-17T06:58:48.701Z,98203.10
2023-06-17T07:01:15.854Z,98196.82
2023-06-17T07:03:43.181Z,98204.43
2023-06-17T07:06:10.292Z,98207.47
2023-06-17T07:08:37.382Z,98208.07
2023-06-17T07:11:04.173Z,98202.65
2023-06-17T07:13:33.091Z,98207.73
2023-06-17T07:15:59.938Z,98209.07
2023-06-17T07:18:26.706Z,98209.36
2023-06-17T07:20:53.505Z,98210.41
2023-06-17T07:23:20.635Z,98211.02
2023-06-17T07:25:48.262Z,98205.32
2023-06-17T07:28:16.019Z,98209.03
2023-06-17T07:30:43.086Z,98208.15
2023-06-17T07:33:10.000Z,98202.42
2023-06-17T07:35:37.669Z,98196.92
2023-06-17T07:38:04.761Z,98201.88
2023-06-17T07:40:31.634Z,98204.44
2023-06-17T07:42:58.387Z,98202.05
2023-06-17T07:45:25.267Z,98198.48
2023-06-17T07:47:52.035Z,98198.39
2023-06-17T07:50:19.065Z,98191.92
2023-06-17T07:52:46.101Z,98192.16
2023-06-17T07:55:13.275Z,98190.16
2023-06-17T07:57:40.065Z,98183.62
2023-06-17T08:00:11.394Z,98177.70
2023-06-17T08:02:41.468Z,98178.70
2023-06-17T08:05:09.869Z,98175.86
2023-06-17T08:07:37.346Z,98177.83
2023-06-17T08:10:08.000Z,98175.43
2023-06-17T08:12:36.673Z,98176.60
2023-06-17T08:15:04.146Z,98174.06
2023-06-17T08:17:30.997Z,98174.34
2023-06-17T08:19:57.911Z,98168.45
2023-06-17T08:22:24.693Z,98172.35
2023-06-17T08:24:51.518Z,98177.98
2023-06-17T08:27:18.464Z,98176.58
2023-06-17T08:29:45.258Z,98178.08
2023-06-17T08:32:12.021Z,98173.45
2023-06-17T08:34:38.836Z,98174.32
2023-06-17T08:37:06.330Z,98170.09
2023-06-17T08:39:33.269Z,98165.27
2023-06-17T08:42:00.554Z,98168.96
2023-06-17T08:44:30.372Z,98176.09
2023-06-17T08:46:59.269Z,98171.13
2023-06-17T08:49:27.964Z,98173.69
2023-06-17T08:51:55.095Z,98170.82
2023-06-17T08:54:22.844Z,98174.34
2023-06-17T08:56:49.705Z,98179.95
2023-06-17T08:59:16.560Z,98177.15
2023-06-17T09:01:44.850Z,98177.03
2023-06-17T09:04:13.897Z,98176.38
2023-06-17T09:06:41.220Z,98168.32
2023-06-17T09:09:07.994Z,98168.37
2023-06-17T09:11:35.513Z,98170.92
2023-06-17T09:14:02.817Z,98167.56
2023-06-17T09:16:32.109Z,98165.55
2023-06-17T09:19:00.792Z,98163.56
2023-06-17T09:21:28.664Z,98170.57
2023-06-17T09:23:57.532Z,98173.09
2023-06-17T09:26:27.053Z,98167.56
2023-06-17T09:28:53.853Z,98164.84
2023-06-17T09:31:20.615Z,98161.27
2023-06-17T09:33:48.053Z,98163.06
2023-06-17T09:36:15.826Z,98164.70
2023-06-17T09:38:42.859Z,98161.45
2023-06-17T09:41:15.934Z,98164.38
2023-06-17T09:43:42.786Z,98160.61
2023-06-17T09:46:11.326Z,98160.66
2023-06-17T09:48:40.032Z,98156.70
2023-06-17T09:51:11.038Z,98157.23
2023-06-17T09:53:39.423Z,98152.31
2023-06-17T09:56:12.700Z,98148.05
2023-06-17T09:58:42.089Z,98146.63
2023-06-17T10:01:12.518Z,98150.52
2023-06-17T10:03:41.236Z,98141.77
2023-06-17T10:06:11.514Z,98141.42
2023-06-17T10:08:43.094Z,98140.91
2023-06-17T10:11:13.212Z,98146.27
2023-06-17T10:13:41.423Z,98147.17
2023-06-17T10:16:13.392Z,98150.33
2023-06-17T10:18:43.040Z,98141.98
2023-06-17T10:21:12.793Z,98142.02
2023-06-17T10:23:42.273Z,98139.10
2023-06-17T10:26:09.528Z,98139.39
2023-06-17T10:28:55.066Z,98138.75
2023-06-17T10:31:27.550Z,98138.47
2023-06-17T10:33:56.542Z,98139.83
2023-06-17T10:36:25.485Z,98135.55
2023-06-17T10:38:56.528Z,98123.73
2023-06-17T10:41:44.026Z,98129.66
2023-06-17T10:44:41.424Z,98127.21
2023-06-17T10:47:24.297Z,98133.98
2023-06-17T10:49:54.166Z,98136.04
2023-06-17T10:52:21.472Z,98140.38
2023-06-17T10:54:54.512Z,98140.28
2023-06-17T10:57:37.350Z,98141.83
2023-06-17T11:00:11.079Z,98141.96
2023-06-17T11:02:39.730Z,98137.44
2023-06-17T11:05:08.488Z,98136.11
2023-06-17T11:07:35.522Z,98139.69
2023-06-17T11:10:03.861Z,98141.55
2023-06-17T11:12:31.142Z,98135.67
2023-06-17T11:15:01.458Z,98141.05
2023-06-17T11:17:28.901Z,98140.84
2023-06-17T11:19:56.543Z,98136.77
2023-06-17T11:22:23.625Z,98130.43
2023-06-17T11:24:50.534Z,98127.68
2023-06-17T11:27:18.546Z,98126.75
2023-06-17T11:29:46.172Z,98128.69
2023-06-17T11:32:13.475Z,98129.65
2023-06-17T11:34:42.743Z,98136.41
2023-06-17T11:37:12.585Z,98134.46
2023-06-17T11:39:40.183Z,98133.20
2023-06-17T11:42:08.337Z,98135.91
2023-06-17T11:44:36.247Z,98133.34
2023-06-17T11:47:04.459Z,98126.64
2023-06-17T11:49:31.516Z,98127.27
2023-06-17T11:52:06.979Z,98121.98
2023-06-17T11:54:34.214Z,98119.77
2023-06-17T11:57:01.460Z,98115.05
2023-06-17T11:59:29.667Z,98112.08
2023-06-17T12:01:57.092Z,98106.67
2023-06-17T12:04:24.081Z,98108.93
2023-06-17T12:06:51.022Z,98108.69
2023-06-17T12:09:17.886Z,98101.11
2023-06-17T12:11:44.823Z,98105.25
2023-06-17T12:14:13.358Z,98104.96
2023-06-17T12:16:42.474Z,98108.21
2023-06-17T12:19:20.662Z,98104.05
2023-06-17T12:21:47.513Z,98104.59
2023-06-17T12:24:16.725Z,98106.19
2023-06-17T12:26:44.433Z,98102.29
2023-06-17T12:29:24.457Z,98096.70
2023-06-17T12:31:52.766Z,98094.23
2023-06-17T12:34:19.552Z,98092.08
2023-06-17T12:36:46.340Z,98091.64
2023-06-17T12:39:13.134Z,98092.77
2023-06-17T12:41:40.222Z,98088.76
2023-06-17T12:44:07.106Z,98086.08
2023-06-17T12:46:36.824Z,98083.10
2023-06-17T12:49:03.966Z,98076.58
2023-06-17T12:51:30.967Z,98079.05
2023-06-17T12:53:57.718Z,98081.38
2023-06-17T12:56:24.483Z,98078.02
2023-06-17T12:58:51.228Z,98073.83
2023-06-17T13:01:18.214Z,98073.77
2023-06-17T13:03:45.201Z,98072.59
2023-06-17T13:06:12.125Z,98069.14
2023-06-17T13:08:39.451Z,98068.27
2023-06-17T13:11:06.534Z,98066.70
2023-06-17T13:13:34.377Z,98060.86
2023-06-17T13:16:02.794Z,98059.45
2023-06-17T13:18:29.506Z,98060.92
2023-06-17T13:20:56.636Z,98066.41
2023-06-17T13:23:23.389Z,98062.20
2023-06-17T13:25:50.357Z,98065.16
2023-06-17T13:28:17.267Z,98068.70
2023-06-17T13:30:44.732Z,98069.14
2023-06-17T13:33:11.680Z,98067.21
2023-06-17T13:35:38.684Z,98065.05
2023-06-17T13:38:05.466Z,98070.72
2023-06-17T13:40:32.315Z,98069.71
2023-06-17T13:42:59.129Z,98071.20
2023-06-17T13:45:26.512Z,98074.11
2023-06-17T13:47:53.355Z,98064.91
2023-06-17T13:50:20.487Z,98069.08
2023-06-17T13:52:47.500Z,98067.86
2023-06-17T13:55:14.300Z,98067.52
2023-06-17T13:57:41.069Z,98066.69
2023-06-17T14:00:09.800Z,98067.48
2023-06-17T14:02:36.800Z,98065.00
2023-06-17T14:05:04.676Z,98064.68
2023-06-17T14:07:32.281Z,98063.89
2023-06-17T14:09:59.396Z,98060.59
2023-06-17T14:12:26.462Z,98061.11
2023-06-17T14:14:55.035Z,98064.30
2023-06-17T14:17:25.108Z,98058.86
2023-06-17T14:19:52.525Z,98065.69
2023-06-17T14:22:19.324Z,98064.30
2023-06-17T14:24:46.420Z,98065.55
2023-06-17T14:27:29.640Z,98061.73
2023-06-17T14:29:56.451Z,98064.41
2023-06-17T14:32:23.495Z,98057.20
2023-06-17T14:34:51.510Z,98056.14
2023-06-17T14:37:18.786Z,98052.06
2023-06-17T14:39:45.686Z,98052.77
2023-06-17T14:42:13.057Z,98052.20
2023-06-17T14:44:40.668Z,98049.32
2023-06-17T14:47:07.894Z,98055.68
2023-06-17T14:49:34.960Z,98054.70
2023-06-17T14:52:01.820Z,98053.45
2023-06-17T14:54:28.712Z,98053.17
2023-06-17T14:56:56.048Z,98053.01
2023-06-17T14:59:22.871Z,98049.92
2023-06-17T15:01:49.638Z,98050.03
2023-06-17T15:04:16.706Z,98050.23
2023-06-17T15:06:43.544Z,98049.48
2023-06-17T15:09:27.098Z,98044.58
2023-06-17T15:11:54.925Z,98048.84
2023-06-17T15:14:22.500Z,98049.05
2023-06-17T15:16:50.156Z,98052.56
2023-06-17T15:19:17.708Z,98049.50
2023-06-17T15:21:44.705Z,98046.21
2023-06-17T15:24:12.124Z,98045.55
2023-06-17T15:26:39.166Z,98047.87
2023-06-17T15:29:07.485Z,98050.21
2023-06-17T15:31:35.120Z,98052.82
2023-06-17T15:34:02.148Z,98052.14
2023-06-17T15:36:30.050Z,98050.80
2023-06-17T15:39:17.301Z,98049.88
2023-06-17T15:41:45.479Z,98049.28
2023-06-17T15:44:12.414Z,98043.64
2023-06-17T15:46:39.292Z,98040.70
2023-06-17T15:49:07.484Z,98039.56
2023-06-17T15:51:35.646Z,98043.21
2023-06-17T15:54:03.898Z,98042.98
2023-06-17T15:56:31.228Z,98048.21
2023-06-17T15:59:00.830Z,98053.82
2023-06-17T16:01:28.560Z,98053.25
2023-06-17T16:03:57.777Z,98055.75
2023-06-17T16:06:24.746Z,98058.41
2023-06-17T16:08:52.488Z,98058.21
2023-06-17T16:11:19.777Z,98057.13
2023-06-17T16:13:46.633Z,98062.31
2023-06-17T16:16:13.457Z,98065.02
2023-06-17T16:18:40.347Z,98067.45
2023-06-17T16:21:07.103Z,98068.86
2023-06-17T16:23:33.947Z,98070.62
2023-06-17T16:26:02.209Z,98075.08
2023-06-17T16:28:29.036Z,98080.37
2023-06-17T16:30:55.896Z,98080.35
2023-06-17T16:33:22.766Z,98083.16
2023-06-17T16:35:49.629Z,98078.19
2023-06-17T16:38:16.437Z,98085.96
2023-06-17T16:40:43.263Z,98086.67
2023-06-17T16:43:10.076Z,98088.98
2023-06-17T16:45:37.122Z,98092.19
2023-06-17T16:48:04.258Z,98092.68
2023-06-17T16:50:31.104Z,98096.02
2023-06-17T16:52:57.866Z,98095.67
2023-06-17T16:55:25.015Z,98096.77
2023-06-17T16:57:51.791Z,98098.30
2023-06-17T17:00:19.655Z,98099.06
2023-06-17T17:02:46.712Z,98100.48
2023-06-17T17:05:13.549Z,98101.46
2023-06-17T17:07:40.371Z,98102.55
2023-06-17T17:10:07.396Z,98101.26
2023-06-17T17:12:34.203Z,98103.91
2023-06-17T17:15:01.169Z,98099.02
2023-06-17T17:17:28.190Z,98104.38
2023-06-17T17:19:55.657Z,98103.85
2023-06-17T17:22:22.467Z,98107.84
2023-06-17T17:24:49.276Z,98112.54
2023-06-17T17:27:16.160Z,98113.31
2023-06-17T17:29:42.928Z,98116.59
2023-06-17T17:32:09.806Z,98118.27
2023-06-17T17:34:36.594Z,98119.05
2023-06-17T17:37:03.538Z,98117.25
2023-06-17T17:39:30.527Z,98124.39
2023-06-17T17:41:57.303Z,98119.73
2023-06-17T17:44:24.053Z,98116.08
2023-06-17T17:46:50.908Z,98121.40
2023-06-17T17:49:17.723Z,98118.52
2023-06-17T17:51:44.452Z,98124.65
2023-06-17T17:54:11.300Z,98126.64
2023-06-17T17:56:38.587Z,98125.32
2023-06-17T17:59:06.366Z,98129.27
2023-06-17T18:01:33.178Z,98134.73
2023-06-17T18:03:59.939Z,98131.65
2023-06-17T18:06:26.899Z,98139.41
2023-06-17T18:08:53.715Z,98141.44
2023-06-17T18:11:20.555Z,98139.32
2023-06-17T18:13:47.422Z,98140.09
2023-06-17T18:16:14.500Z,98143.50
2023-06-17T18:18:41.405Z,98143.61
2023-06-17T18:21:08.159Z,98142.13
2023-06-17T18:23:34.918Z,98154.67
2023-06-17T18:26:01.754Z,98154.67
2023-06-17T18:28:28.773Z,98156.96
2023-06-17T18:30:55.552Z,98161.53
2023-06-17T18:33:22.523Z,98165.12
2023-06-17T18:35:49.441Z,98168.69
2023-06-17T18:38:16.808Z,98173.01
2023-06-17T18:40:43.712Z,98176.20
2023-06-17T18:43:10.684Z,98174.11
2023-06-17T18:45:37.647Z,98172.45
2023-06-17T18:48:05.398Z,98176.31
2023-06-17T18:50:32.336Z,98179.34
2023-06-17T18:52:59.138Z,98180.77
2023-06-17T18:55:26.008Z,98180.56
2023-06-17T18:57:52.742Z,98181.86
2023-06-17T19:00:20.253Z,98182.36
2023-06-17T19:02:47.509Z,98183.02
2023-06-17T19:05:14.368Z,98188.98
2023-06-17T19:07:44.614Z,98188.58
2023-06-17T19:10:12.423Z,98188.38
2023-06-17T19:12:39.581Z,98191.41
2023-06-17T19:15:10.024Z,98199.66
2023-06-17T19:17:38.737Z,98204.30
2023-06-17T19:20:07.925Z,98206.63
2023-06-17T19:22:36.844Z,98212.70
2023-06-17T19:25:05.541Z,98215.09
2023-06-17T19:27:32.662Z,98216.38
2023-06-17T19:30:01.739Z,98219.44
2023-06-17T19:32:29.543Z,98223.70
2023-06-17T19:34:58.810Z,98224.80
2023-06-17T19:37:27.957Z,98227.58
2023-06-17T19:39:54.792Z,98226.90
2023-06-17T19:42:22.035Z,98234.20
2023-06-17T19:44:56.982Z,98239.38
2023-06-17T19:47:25.788Z,98237.79
2023-06-17T19:49:53.942Z,98239.73
2023-06-17T19:52:21.254Z,98244.23
2023-06-17T19:54:48.608Z,98243.39
2023-06-17T19:57:15.936Z,98248.36
2023-06-17T19:59:42.798Z,98246.31
2023-06-17T20:02:11.119Z,98248.23
2023-06-17T20:04:37.872Z,98248.94
2023-06-17T20:07:04.845Z,98246.38
2023-06-17T20:09:31.688Z,98248.33
2023-06-17T20:11:58.457Z,98247.70
2023-06-17T20:14:25.228Z,98250.97
2023-06-17T20:16:53.093Z,98252.12
2023-06-17T20:19:20.144Z,98248.65
2023-06-17T20:21:47.171Z,98249.36
2023-06-17T20:24:13.971Z,98250.45
2023-06-17T20:26:40.820Z,98249.56
2023-06-17T20:29:07.578Z,98249.65
2023-06-17T20:31:34.347Z,98253.48
2023-06-17T20:34:02.232Z,98251.43
2023-06-17T20:36:29.503Z,98249.70
2023-06-17T20:38:56.579Z,98248.77
2023-06-17T20:41:23.315Z,98247.77
2023-06-17T20:43:50.128Z,98252.21
2023-06-17T20:46:17.450Z,98251.42
2023-06-17T20:48:44.398Z,98257.50
2023-06-17T20:51:11.360Z,98255.75
2023-06-17T20:53:38.415Z,98251.95
2023-06-17T20:56:05.210Z,98248.80
2023-06-17T20:58:32.189Z,98253.00
2023-06-17T21:00:59.076Z,98260.59
2023-06-17T21:03:26.158Z,98258.77
2023-06-17T21:05:52.968Z,98259.63
2023-06-17T21:08:19.929Z,98261.56
2023-06-17T21:10:46.684Z,98263.31
2023-06-17T21:13:13.605Z,98264.35
2023-06-17T21:15:40.629Z,98264.15
2023-06-17T21:18:07.433Z,98262.25
2023-06-17T21:20:34.258Z,98263.58
2023-06-17T21:23:01.045Z,98265.27
2023-06-17T21:25:27.875Z,98265.59
2023-06-17T21:27:54.639Z,98264.09
2023-06-17T21:30:21.640Z,98265.16
2023-06-17T21:32:48.680Z,98263.02
2023-06-17T21:35:15.729Z,98267.94
2023-06-17T21:37:42.473Z,98266.51
2023-06-17T21:40:10.206Z,98268.75
2023-06-17T21:42:37.651Z,98271.52
2023-06-17T21:45:04.852Z,98278.11
2023-06-17T21:47:31.816Z,98274.16
2023-06-17T21:49:59.518Z,98278.82
2023-06-17T21:52:26.343Z,98278.30
2023-06-17T21:54:53.132Z,98282.38
2023-06-17T21:57:21.043Z,98280.38
2023-06-17T21:59:47.824Z,98282.43
2023-06-17T22:02:14.783Z,98283.93
2023-06-17T22:04:41.612Z,98285.09
2023-06-17T22:07:08.469Z,98289.10
2023-06-17T22:09:35.321Z,98285.09
2023-06-17T22:12:02.247Z,98281.88
2023-06-17T22:14:29.034Z,98285.89
2023-06-17T22:16:55.761Z,98287.08
2023-06-17T22:19:22.786Z,98285.98
2023-06-17T22:21:49.606Z,98286.75
2023-06-17T22:24:16.454Z,98286.22
2023-06-17T22:26:43.255Z,98288.98
2023-06-17T22:29:10.015Z,98291.51
2023-06-17T22:31:36.810Z,98295.75
2023-06-17T22:34:03.645Z,98290.48
2023-06-17T22:36:30.414Z,98291.21
2023-06-17T22:38:57.240Z,98291.27
2023-06-17T22:41:24.213Z,98289.64
2023-06-17T22:43:51.135Z,98290.17
2023-06-17T22:46:18.033Z,98291.39
2023-06-17T22:48:44.807Z,98286.95
2023-06-17T22:51:11.581Z,98287.61
2023-06-17T22:53:38.357Z,98288.30
2023-06-17T22:56:05.263Z,98285.08
2023-06-17T22:58:32.079Z,98292.23
2023-06-17T23:00:59.380Z,98290.98
2023-06-17T23:03:26.675Z,98290.43
2023-06-17T23:05:53.489Z,98289.67
2023-06-17T23:08:20.236Z,98287.36
2023-06-17T23:10:47.164Z,98291.15
2023-06-17T23:13:14.039Z,98284.77
2023-06-17T23:15:41.167Z,98284.83
2023-06-17T23:18:08.446Z,98283.97
2023-06-17T23:20:35.275Z,98281.72
2023-06-17T23:23:04.168Z,98281.69
2023-06-17T23:25:31.664Z,98282.92
2023-06-17T23:27:58.477Z,98278.23
2023-06-17T23:30:26.041Z,98280.05
2023-06-17T23:32:53.424Z,98281.45
2023-06-17T23:35:20.654Z,98282.61
2023-06-17T23:37:47.559Z,98281.45
2023-06-17T23:40:14.505Z,98281.31
2023-06-17T23:42:41.636Z,98283.37
2023-06-17T23:45:09.193Z,98281.94
2023-06-17T23:47:36.277Z,98283.38
2023-06-17T23:50:03.224Z,98280.28
2023-06-17T23:52:30.086Z,98286.12
2023-06-17T23:54:56.865Z,98288.19
2023-06-17T23:57:23.654Z,98296.19
2023-06-17T23:59:50.412Z,98298.11
